CheckWX is a tool to help pilots better visualize weather data.  It is not intended as a substitute for an official pre-flight weather briefing.

20:54:58 UTC

K1YT METAR
Yagabond Aaf
Yagabond Aaf, Washington, USA
Current

32 mins ago

K1YT 232023Z AUTO 00000KT 10SM SCT027 BKN100 05/03 A3003 RMK AO2 SLPNO $
Observed
Jan-23 @ 20:23 UTC
Visibility
10 SM
Flight Rules
VFR
Cloud Levels
  • Scattered at 2,700' AGL
  • Broken at 10,000' AGL
Temperature
C / 41°F
Dewpoint
C / 37°F
Humidity
87%
Altimeter
30.03" Hg
Pressure
1016.92 hPa
Previous

57 mins ago

K1YT 231958Z AUTO 00000KT 9SM FEW015 BKN025 04/02 A3005 RMK AO2 SLPNO T00410022 $
Observed
Jan-23 @ 19:58 UTC
Visibility
9 SM
Flight Rules
MVFR
Cloud Levels
  • Few at 1,500' AGL
  • Broken at 2,500' AGL
Temperature
C / 39°F
Dewpoint
C / 36°F
Humidity
87%
Altimeter
30.05" Hg
Pressure
1017.62 hPa
Previous

2 hours ago

K1YT 231923Z AUTO 00000KT 10SM SCT013 BKN024 04/02 A3006 RMK AO2 CIG 013V024 SLPNO $
Observed
Jan-23 @ 19:23 UTC
Visibility
10 SM
Flight Rules
MVFR
Cloud Levels
  • Scattered at 1,300' AGL
  • Broken at 2,400' AGL
Temperature
C / 39°F
Dewpoint
C / 36°F
Humidity
87%
Altimeter
30.06" Hg
Pressure
1017.92 hPa